createdAt,value
2022-07-28T00:01:08.340Z,49.30
2022-07-28T00:03:37.620Z,49.12
2022-07-28T00:06:05.614Z,49.17
2022-07-28T00:08:33.588Z,49.06
2022-07-28T00:11:01.498Z,49.30
2022-07-28T00:13:29.489Z,49.64
2022-07-28T00:15:57.335Z,49.66
2022-07-28T00:18:25.328Z,49.75
2022-07-28T00:20:54.570Z,49.54
2022-07-28T00:23:22.488Z,49.91
2022-07-28T00:25:50.483Z,50.00
2022-07-28T00:28:18.394Z,50.05
2022-07-28T00:30:46.352Z,49.70
2022-07-28T00:33:14.293Z,50.03
2022-07-28T00:35:42.170Z,50.20
2022-07-28T00:38:17.735Z,50.33
2022-07-28T00:41:03.007Z,50.18
2022-07-28T00:43:30.954Z,50.08
2022-07-28T00:45:58.885Z,50.09
2022-07-28T00:48:26.954Z,50.25
2022-07-28T00:50:55.049Z,50.46
2022-07-28T00:53:24.742Z,50.27
2022-07-28T00:56:03.061Z,50.59
2022-07-28T00:58:35.556Z,50.94
2022-07-28T01:01:03.962Z,50.87
2022-07-28T01:03:33.277Z,50.85
2022-07-28T01:06:07.368Z,50.69
2022-07-28T01:08:50.977Z,50.79
2022-07-28T01:11:30.865Z,51.00
2022-07-28T01:14:08.761Z,51.09
2022-07-28T01:16:42.193Z,51.17
2022-07-28T01:19:15.711Z,50.98
2022-07-28T01:21:46.811Z,51.42
2022-07-28T01:24:24.981Z,51.46
2022-07-28T01:26:58.161Z,51.49
2022-07-28T01:30:04.101Z,51.52
2022-07-28T01:32:38.677Z,51.58
2022-07-28T01:35:12.852Z,51.66
2022-07-28T01:37:44.778Z,51.65
2022-07-28T01:40:16.627Z,51.82
2022-07-28T01:42:48.201Z,51.93
2022-07-28T01:45:17.114Z,51.97
2022-07-28T01:47:47.931Z,52.26
2022-07-28T01:50:18.075Z,52.28
2022-07-28T01:52:48.407Z,51.79
2022-07-28T01:55:20.250Z,52.10
2022-07-28T01:57:50.097Z,52.32
2022-07-28T02:00:19.292Z,52.34
2022-07-28T02:02:50.954Z,52.58
2022-07-28T02:05:22.973Z,52.61
2022-07-28T02:07:52.459Z,52.57
2022-07-28T02:10:22.420Z,52.84
2022-07-28T02:12:52.774Z,52.81
2022-07-28T02:15:23.248Z,52.98
2022-07-28T02:17:53.986Z,53.03
2022-07-28T02:20:23.476Z,53.08
2022-07-28T02:22:53.029Z,53.16
2022-07-28T02:25:21.492Z,53.31
2022-07-28T02:27:54.659Z,53.32
2022-07-28T02:30:35.480Z,53.48
2022-07-28T02:33:09.164Z,53.29
2022-07-28T02:35:45.820Z,53.55
2022-07-28T02:38:22.108Z,53.45
2022-07-28T02:40:53.541Z,53.84
2022-07-28T02:43:26.686Z,53.86
2022-07-28T02:46:15.824Z,53.81
2022-07-28T02:48:48.601Z,53.90
2022-07-28T02:51:18.605Z,53.98
2022-07-28T02:53:47.782Z,54.17
2022-07-28T02:56:17.835Z,54.26
2022-07-28T02:58:47.657Z,54.35
2022-07-28T03:01:19.965Z,54.31
2022-07-28T03:03:50.360Z,54.52
2022-07-28T03:06:19.637Z,54.50
2022-07-28T03:08:54.726Z,54.56
2022-07-28T03:11:22.602Z,54.49
2022-07-28T03:13:50.509Z,54.59
2022-07-28T03:16:18.498Z,54.77
2022-07-28T03:18:46.447Z,54.85
2022-07-28T03:21:16.042Z,54.96
2022-07-28T03:23:46.541Z,55.02
2022-07-28T03:26:18.540Z,55.06
2022-07-28T03:28:48.832Z,55.05
2022-07-28T03:31:18.615Z,55.08
2022-07-28T03:33:47.062Z,55.30
2022-07-28T03:36:19.894Z,55.36
2022-07-28T03:38:53.890Z,55.36
2022-07-28T03:41:23.051Z,55.52
2022-07-28T03:43:51.863Z,55.61
2022-07-28T03:46:21.389Z,55.74
2022-07-28T03:48:49.414Z,55.59
2022-07-28T03:51:18.610Z,55.81
2022-07-28T03:53:47.501Z,55.80
2022-07-28T03:56:15.406Z,55.82
2022-07-28T03:58:43.391Z,56.03
2022-07-28T04:01:11.353Z,56.20
2022-07-28T04:03:43.821Z,56.26
2022-07-28T04:06:12.297Z,56.17
2022-07-28T04:08:41.914Z,56.31
2022-07-28T04:11:09.884Z,56.37
2022-07-28T04:13:37.766Z,56.40
2022-07-28T04:16:06.951Z,56.44
2022-07-28T04:18:35.481Z,56.58
2022-07-28T04:21:03.519Z,56.58
2022-07-28T04:23:31.827Z,56.50
2022-07-28T04:26:01.082Z,56.72
2022-07-28T04:28:29.057Z,56.68
2022-07-28T04:30:57.328Z,56.90
2022-07-28T04:33:25.228Z,56.99
2022-07-28T04:35:53.679Z,57.17
2022-07-28T04:38:21.590Z,57.05
2022-07-28T04:40:49.990Z,57.14
2022-07-28T04:43:19.421Z,57.28
2022-07-28T04:45:53.169Z,57.26
2022-07-28T04:48:22.689Z,57.07
2022-07-28T04:50:52.511Z,57.45
2022-07-28T04:53:20.757Z,57.67
2022-07-28T04:55:49.348Z,57.69
2022-07-28T04:58:19.306Z,57.75
2022-07-28T05:00:50.377Z,57.69
2022-07-28T05:03:19.216Z,57.80
2022-07-28T05:05:54.007Z,57.86
2022-07-28T05:08:25.646Z,57.86
2022-07-28T05:10:54.308Z,58.07
2022-07-28T05:13:22.192Z,57.83
2022-07-28T05:15:51.459Z,58.25
2022-07-28T05:18:19.328Z,58.09
2022-07-28T05:20:47.298Z,58.17
2022-07-28T05:23:15.724Z,58.25
2022-07-28T05:25:43.636Z,58.39
2022-07-28T05:28:11.534Z,58.64
2022-07-28T05:30:39.593Z,58.69
2022-07-28T05:33:08.791Z,58.63
2022-07-28T05:35:36.825Z,58.60
2022-07-28T05:38:08.904Z,58.67
2022-07-28T05:40:38.611Z,58.95
2022-07-28T05:43:06.427Z,59.13
2022-07-28T05:45:34.630Z,58.89
2022-07-28T05:48:02.585Z,59.11
2022-07-28T05:50:32.267Z,59.14
2022-07-28T05:53:00.226Z,59.34
2022-07-28T05:55:28.181Z,59.49
2022-07-28T05:57:56.147Z,59.15
2022-07-28T06:00:24.552Z,59.43
2022-07-28T06:02:52.701Z,59.73
2022-07-28T06:05:22.066Z,59.52
2022-07-28T06:07:52.653Z,59.74
2022-07-28T06:10:23.058Z,59.77
2022-07-28T06:12:53.326Z,59.75
2022-07-28T06:15:23.401Z,59.84
2022-07-28T06:17:52.563Z,60.24
2022-07-28T06:20:21.157Z,60.08
2022-07-28T06:22:52.143Z,59.89
2022-07-28T06:25:22.323Z,60.03
2022-07-28T06:27:51.933Z,60.56
2022-07-28T06:30:20.492Z,60.50
2022-07-28T06:32:48.979Z,60.35
2022-07-28T06:35:18.017Z,60.56
2022-07-28T06:37:45.885Z,60.54
2022-07-28T06:40:16.237Z,60.88
2022-07-28T06:42:44.944Z,60.76
2022-07-28T06:45:21.265Z,60.94
2022-07-28T06:47:49.875Z,61.19
2022-07-28T06:50:26.386Z,60.79
2022-07-28T06:52:55.473Z,60.81
2022-07-28T06:55:25.001Z,61.26
2022-07-28T06:57:53.113Z,60.98
2022-07-28T07:00:21.298Z,61.02
2022-07-28T07:02:49.193Z,61.52
2022-07-28T07:05:17.070Z,61.03
2022-07-28T07:07:45.371Z,61.16
2022-07-28T07:10:13.612Z,61.22
2022-07-28T07:12:42.999Z,61.37
2022-07-28T07:15:12.258Z,61.23
2022-07-28T07:17:41.800Z,61.30
2022-07-28T07:20:11.107Z,61.48
2022-07-28T07:22:43.861Z,61.69
2022-07-28T07:25:13.547Z,61.67
2022-07-28T07:27:43.634Z,61.61
2022-07-28T07:30:13.016Z,61.84
2022-07-28T07:32:41.375Z,61.60
2022-07-28T07:35:09.773Z,61.77
2022-07-28T07:37:37.747Z,61.72
2022-07-28T07:40:07.179Z,61.81
2022-07-28T07:42:35.570Z,61.78
2022-07-28T07:45:05.531Z,61.79
2022-07-28T07:47:33.405Z,61.80
2022-07-28T07:50:04.117Z,61.75
2022-07-28T07:52:32.722Z,61.90
2022-07-28T07:55:00.568Z,61.97
2022-07-28T07:57:29.743Z,61.90
2022-07-28T07:59:57.661Z,61.80
2022-07-28T08:02:27.017Z,61.80
2022-07-28T08:04:56.517Z,61.95
2022-07-28T08:07:24.799Z,61.94
2022-07-28T08:09:52.787Z,61.93
2022-07-28T08:12:24.947Z,61.96
2022-07-28T08:14:53.515Z,61.83
2022-07-28T08:17:25.546Z,61.72
2022-07-28T08:19:55.278Z,61.88
2022-07-28T08:22:23.274Z,61.95
2022-07-28T08:24:51.259Z,61.73
2022-07-28T08:27:19.574Z,61.94
2022-07-28T08:29:47.586Z,61.88
2022-07-28T08:32:16.399Z,61.62
2022-07-28T08:34:44.293Z,61.90
2022-07-28T08:37:13.504Z,61.70
2022-07-28T08:39:41.379Z,61.66
2022-07-28T08:42:16.473Z,61.76
2022-07-28T08:44:51.103Z,61.67
2022-07-28T08:47:20.651Z,61.58
2022-07-28T08:49:50.026Z,61.73
2022-07-28T08:52:21.621Z,61.79
2022-07-28T08:54:51.855Z,61.55
2022-07-28T08:57:26.956Z,61.41
2022-07-28T08:59:55.769Z,61.46
2022-07-28T09:02:26.348Z,61.36
2022-07-28T09:04:55.697Z,61.29
2022-07-28T09:07:25.064Z,61.20
2022-07-28T09:09:53.257Z,61.12
2022-07-28T09:12:27.337Z,61.23
2022-07-28T09:14:55.817Z,60.92
2022-07-28T09:17:23.665Z,61.03
2022-07-28T09:19:51.616Z,60.99
2022-07-28T09:22:19.548Z,60.68
2022-07-28T09:24:48.864Z,61.02
2022-07-28T09:27:17.880Z,60.75
2022-07-28T09:29:47.789Z,60.72
2022-07-28T09:32:16.961Z,60.37
2022-07-28T09:34:46.326Z,60.30
2022-07-28T09:37:26.848Z,60.26
2022-07-28T09:39:59.107Z,60.49
2022-07-28T09:42:27.620Z,60.21
2022-07-28T09:45:22.454Z,60.19
2022-07-28T09:48:10.266Z,59.72
2022-07-28T09:50:39.016Z,59.72
2022-07-28T09:53:24.088Z,59.71
2022-07-28T09:56:01.009Z,59.63
2022-07-28T09:58:29.686Z,59.75
2022-07-28T10:01:09.278Z,59.57
2022-07-28T10:03:40.796Z,59.39
2022-07-28T10:06:14.500Z,59.34
2022-07-28T10:08:44.670Z,59.08
2022-07-28T10:11:16.077Z,59.07
2022-07-28T10:13:57.771Z,59.05
2022-07-28T10:16:27.559Z,58.72
2022-07-28T10:18:56.758Z,58.71
2022-07-28T10:21:25.951Z,58.48
2022-07-28T10:23:56.068Z,58.57
2022-07-28T10:26:28.916Z,58.54
2022-07-28T10:28:57.839Z,58.30
2022-07-28T10:31:34.684Z,58.35
2022-07-28T10:34:06.111Z,58.24
2022-07-28T10:36:36.145Z,57.92
2022-07-28T10:39:12.888Z,58.14
2022-07-28T10:41:43.959Z,58.23
2022-07-28T10:44:15.273Z,57.85
2022-07-28T10:46:44.660Z,57.54
2022-07-28T10:49:15.156Z,57.67
2022-07-28T10:52:02.165Z,57.26
2022-07-28T10:54:34.313Z,57.27
2022-07-28T10:57:06.416Z,57.13
2022-07-28T10:59:43.240Z,57.18
2022-07-28T11:02:53.374Z,57.03
2022-07-28T11:05:36.505Z,56.80
2022-07-28T11:08:07.756Z,56.80
2022-07-28T11:10:49.802Z,56.50
2022-07-28T11:13:28.973Z,56.66
2022-07-28T11:15:58.301Z,56.27
2022-07-28T11:18:29.029Z,56.32
2022-07-28T11:21:10.958Z,56.12
2022-07-28T11:23:55.104Z,55.90
2022-07-28T11:26:46.081Z,55.95
2022-07-28T11:29:20.095Z,55.78
2022-07-28T11:32:01.943Z,55.57
2022-07-28T11:35:17.240Z,55.52
2022-07-28T11:38:16.554Z,55.20
2022-07-28T11:40:45.721Z,55.20
2022-07-28T11:43:38.898Z,55.24
2022-07-28T11:46:23.863Z,55.12
2022-07-28T11:49:24.926Z,54.73
2022-07-28T11:52:23.460Z,54.67
2022-07-28T11:54:55.257Z,54.53
2022-07-28T11:57:26.086Z,54.39
2022-07-28T11:59:57.263Z,54.44
2022-07-28T12:02:28.619Z,54.23
2022-07-28T12:05:09.744Z,54.10
2022-07-28T12:07:43.818Z,53.80
2022-07-28T12:10:54.545Z,53.74
2022-07-28T12:13:16.792Z,53.81
2022-07-28T12:15:51.290Z,53.43
2022-07-28T12:18:19.774Z,53.66
2022-07-28T12:20:49.888Z,53.17
2022-07-28T12:23:17.771Z,53.34
2022-07-28T12:25:48.048Z,52.89
2022-07-28T12:28:18.691Z,53.18
2022-07-28T12:30:47.224Z,52.98
2022-07-28T12:33:20.277Z,52.61
2022-07-28T12:35:50.401Z,52.65
2022-07-28T12:38:18.856Z,52.81
2022-07-28T12:40:48.244Z,52.56
2022-07-28T12:43:21.092Z,52.31
2022-07-28T12:45:50.003Z,52.35
2022-07-28T12:48:19.782Z,52.13
2022-07-28T12:50:48.453Z,51.60
2022-07-28T12:53:18.091Z,51.99
2022-07-28T12:55:46.000Z,51.74
2022-07-28T12:58:27.545Z,51.74
2022-07-28T13:00:57.415Z,51.56
2022-07-28T13:03:26.792Z,51.48
2022-07-28T13:06:04.919Z,51.34
2022-07-28T13:08:44.317Z,50.92
2022-07-28T13:11:42.882Z,51.13
2022-07-28T13:14:04.566Z,50.88
2022-07-28T13:16:34.262Z,50.58
2022-07-28T13:19:05.573Z,50.23
2022-07-28T13:21:57.335Z,50.42
2022-07-28T13:24:28.133Z,49.90
2022-07-28T13:26:57.037Z,49.65
2022-07-28T13:29:26.444Z,49.76
2022-07-28T13:31:55.481Z,49.41
2022-07-28T13:34:23.585Z,49.35
2022-07-28T13:36:52.371Z,49.54
2022-07-28T13:39:20.312Z,48.93
2022-07-28T13:41:56.553Z,49.35
2022-07-28T13:44:27.770Z,48.74
2022-07-28T13:46:56.914Z,48.68
2022-07-28T13:49:28.481Z,48.50
2022-07-28T13:51:57.203Z,48.72
2022-07-28T13:54:25.805Z,48.10
2022-07-28T13:56:54.220Z,48.28
2022-07-28T13:59:22.305Z,48.13
2022-07-28T14:01:57.435Z,47.67
2022-07-28T14:04:25.709Z,47.66
2022-07-28T14:06:54.734Z,47.51
2022-07-28T14:09:23.023Z,47.40
2022-07-28T14:11:53.778Z,47.54
2022-07-28T14:14:24.575Z,47.25
2022-07-28T14:16:55.491Z,47.04
2022-07-28T14:19:38.864Z,46.95
2022-07-28T14:22:12.884Z,46.82
2022-07-28T14:24:41.961Z,46.64
2022-07-28T14:27:10.477Z,46.47
2022-07-28T14:29:38.702Z,46.33
2022-07-28T14:32:08.296Z,46.22
2022-07-28T14:34:36.343Z,46.19
2022-07-28T14:37:08.627Z,45.87
2022-07-28T14:39:37.451Z,45.88
2022-07-28T14:42:05.601Z,45.68
2022-07-28T14:44:33.556Z,45.24
2022-07-28T14:47:01.458Z,45.30
2022-07-28T14:49:30.963Z,45.13
2022-07-28T14:51:59.390Z,45.25
2022-07-28T14:54:28.219Z,45.02
2022-07-28T14:56:56.330Z,44.85
2022-07-28T14:59:24.355Z,44.67
2022-07-28T15:01:52.660Z,44.52
2022-07-28T15:04:20.606Z,44.39
2022-07-28T15:06:49.896Z,44.07
2022-07-28T15:09:17.799Z,44.09
2022-07-28T15:11:47.354Z,44.13
2022-07-28T15:14:16.097Z,43.87
2022-07-28T15:16:48.547Z,43.90
2022-07-28T15:19:16.831Z,43.85
2022-07-28T15:21:47.342Z,43.47
2022-07-28T15:24:17.309Z,43.53
2022-07-28T15:26:45.584Z,43.01
2022-07-28T15:29:13.526Z,43.09
2022-07-28T15:31:42.675Z,43.05
2022-07-28T15:34:13.520Z,42.83
2022-07-28T15:36:41.741Z,42.80
2022-07-28T15:39:13.864Z,42.64
2022-07-28T15:41:44.779Z,42.35
2022-07-28T15:44:14.530Z,42.48
2022-07-28T15:46:43.026Z,42.26
2022-07-28T15:49:14.864Z,42.21
2022-07-28T15:51:42.881Z,42.08
2022-07-28T15:54:10.994Z,41.94
2022-07-28T15:56:38.930Z,41.65
2022-07-28T15:59:09.214Z,41.76
2022-07-28T16:01:39.810Z,41.71
2022-07-28T16:04:11.363Z,41.48
2022-07-28T16:07:08.267Z,41.61
2022-07-28T16:09:45.911Z,41.21
2022-07-28T16:12:15.151Z,41.35
2022-07-28T16:14:44.796Z,41.24
2022-07-28T16:17:13.141Z,40.78
2022-07-28T16:19:50.051Z,40.87
2022-07-28T16:22:18.791Z,40.72
2022-07-28T16:24:47.524Z,40.82
2022-07-28T16:27:15.746Z,40.92
2022-07-28T16:29:45.600Z,40.39
2022-07-28T16:32:14.102Z,40.75
2022-07-28T16:34:41.998Z,40.69
2022-07-28T16:37:09.991Z,40.58
2022-07-28T16:39:38.356Z,40.41
2022-07-28T16:42:06.733Z,40.32
2022-07-28T16:44:35.749Z,40.37
2022-07-28T16:47:05.251Z,39.92
2022-07-28T16:49:33.712Z,40.03
2022-07-28T16:52:01.628Z,40.20
2022-07-28T16:54:31.675Z,39.57
2022-07-28T16:57:00.692Z,40.02
2022-07-28T16:59:37.676Z,39.95
2022-07-28T17:02:18.100Z,39.78
2022-07-28T17:04:46.355Z,39.22
2022-07-28T17:07:14.414Z,39.51
2022-07-28T17:09:42.495Z,39.24
2022-07-28T17:12:10.547Z,39.40
2022-07-28T17:14:38.551Z,39.14
2022-07-28T17:17:06.410Z,39.33
2022-07-28T17:19:35.948Z,39.35
2022-07-28T17:22:06.955Z,39.18
2022-07-28T17:24:35.279Z,39.04
2022-07-28T17:29:51.223Z,38.70
2022-07-28T17:32:19.225Z,38.65
2022-07-28T17:34:48.669Z,38.70
2022-07-28T17:37:16.757Z,38.76
2022-07-28T17:39:44.786Z,38.66
2022-07-28T17:42:12.928Z,38.43
2022-07-28T17:44:40.828Z,38.40
2022-07-28T17:47:09.215Z,38.54
2022-07-28T17:49:42.101Z,38.52
2022-07-28T17:52:14.305Z,38.37
2022-07-28T17:54:59.655Z,38.44
2022-07-28T17:57:30.557Z,38.21
2022-07-28T18:00:07.125Z,38.27
2022-07-28T18:02:39.921Z,38.39
2022-07-28T18:05:10.013Z,38.17
2022-07-28T18:07:50.392Z,38.31
2022-07-28T18:10:24.831Z,38.12
2022-07-28T18:12:53.358Z,37.89
2022-07-28T18:15:21.316Z,37.79
2022-07-28T18:17:55.451Z,37.74
2022-07-28T18:20:24.703Z,38.04
2022-07-28T18:22:53.949Z,38.06
2022-07-28T18:25:21.894Z,37.92
2022-07-28T18:27:50.559Z,37.73
2022-07-28T18:30:18.963Z,37.88
2022-07-28T18:32:47.050Z,38.06
2022-07-28T18:35:15.384Z,37.70
2022-07-28T18:37:45.870Z,37.63
2022-07-28T18:40:18.519Z,37.91
2022-07-28T18:42:46.795Z,37.73
2022-07-28T18:45:15.784Z,37.79
2022-07-28T18:47:45.599Z,37.69
2022-07-28T18:50:30.603Z,37.68
2022-07-28T18:53:00.661Z,37.43
2022-07-28T18:55:30.145Z,37.53
2022-07-28T18:57:58.032Z,37.44
2022-07-28T19:00:26.893Z,37.45
2022-07-28T19:02:54.834Z,37.76
2022-07-28T19:05:22.954Z,37.60
2022-07-28T19:07:51.150Z,37.85
2022-07-28T19:10:19.187Z,37.61
2022-07-28T19:12:48.911Z,37.68
2022-07-28T19:15:16.767Z,37.53
2022-07-28T19:17:44.729Z,37.78
2022-07-28T19:20:12.777Z,37.24
2022-07-28T19:22:41.336Z,37.16
2022-07-28T19:25:10.969Z,37.51
2022-07-28T19:27:39.630Z,37.28
2022-07-28T19:30:10.738Z,37.59
2022-07-28T19:32:41.913Z,37.33
2022-07-28T19:35:10.422Z,37.31
2022-07-28T19:37:38.904Z,37.71
2022-07-28T19:40:08.410Z,37.16
2022-07-28T19:42:36.357Z,37.29
2022-07-28T19:45:04.559Z,37.26
2022-07-28T19:47:36.851Z,37.29
2022-07-28T19:50:06.049Z,37.54
2022-07-28T19:52:34.513Z,37.26
2022-07-28T19:55:02.550Z,37.29
2022-07-28T19:57:32.970Z,37.43
2022-07-28T20:00:02.090Z,37.24
2022-07-28T20:02:41.497Z,37.32
2022-07-28T20:05:10.992Z,37.33
2022-07-28T20:07:39.143Z,37.47
2022-07-28T20:10:07.570Z,37.29
2022-07-28T20:12:36.841Z,37.30
2022-07-28T20:15:05.422Z,37.53
2022-07-28T20:17:39.021Z,37.31
2022-07-28T20:20:11.532Z,37.52
2022-07-28T20:22:42.200Z,37.37
2022-07-28T20:25:11.847Z,37.44
2022-07-28T20:27:41.078Z,37.36
2022-07-28T20:30:10.589Z,37.31
2022-07-28T20:32:38.708Z,37.44
2022-07-28T20:35:11.391Z,37.30
2022-07-28T20:37:39.748Z,37.44
2022-07-28T20:40:08.804Z,37.43
2022-07-28T20:42:37.006Z,37.42
2022-07-28T20:45:06.387Z,37.30
2022-07-28T20:47:34.681Z,37.51
2022-07-28T20:50:05.190Z,37.63
2022-07-28T20:52:34.834Z,37.55
2022-07-28T20:55:04.532Z,37.49
2022-07-28T20:57:32.489Z,37.60
2022-07-28T21:00:00.497Z,37.50
2022-07-28T21:02:28.490Z,37.58
2022-07-28T21:04:56.721Z,37.50
2022-07-28T21:08:00.778Z,37.61
2022-07-28T21:10:13.951Z,37.62
2022-07-28T21:12:41.778Z,37.62
2022-07-28T21:15:10.646Z,37.68
2022-07-28T21:17:38.602Z,37.68
2022-07-28T21:20:08.177Z,37.66
2022-07-28T21:22:35.999Z,37.59
2022-07-28T21:25:03.996Z,37.64
2022-07-28T21:27:53.327Z,37.63
2022-07-28T21:30:20.543Z,37.70
2022-07-28T21:32:56.121Z,37.74
2022-07-28T21:35:23.983Z,37.69
2022-07-28T21:37:51.983Z,37.79
2022-07-28T21:40:19.873Z,37.78
2022-07-28T21:42:49.287Z,37.71
2022-07-28T21:45:17.179Z,37.84
2022-07-28T21:47:45.228Z,37.88
2022-07-28T21:50:13.716Z,37.81
2022-07-28T21:52:41.729Z,37.84
2022-07-28T21:55:10.954Z,38.01
2022-07-28T21:57:39.130Z,37.92
2022-07-28T22:00:11.899Z,37.95
2022-07-28T22:06:35.474Z,37.98
2022-07-28T22:09:03.728Z,38.16
2022-07-28T22:11:31.549Z,38.06
2022-07-28T22:13:59.464Z,37.99
2022-07-28T22:16:27.382Z,38.21
2022-07-28T22:18:55.355Z,38.14
2022-07-28T22:21:23.192Z,38.11
2022-07-28T22:23:52.495Z,38.23
2022-07-28T22:26:20.498Z,38.33
2022-07-28T22:28:48.419Z,38.33
2022-07-28T22:31:17.016Z,38.21
2022-07-28T22:33:46.382Z,38.32
2022-07-28T22:36:14.220Z,38.31
2022-07-28T22:38:42.088Z,38.41
2022-07-28T22:41:11.351Z,38.45
2022-07-28T22:43:39.233Z,38.41
2022-07-28T22:46:07.183Z,38.67
2022-07-28T22:48:35.027Z,38.43
2022-07-28T22:51:02.853Z,38.62
2022-07-28T22:53:30.661Z,38.47
2022-07-28T22:55:58.549Z,38.66
2022-07-28T22:58:27.845Z,38.65
2022-07-28T23:00:55.761Z,38.71
2022-07-28T23:03:24.248Z,38.85
2022-07-28T23:05:57.722Z,38.69
2022-07-28T23:08:26.430Z,38.84
2022-07-28T23:10:54.471Z,38.85
2022-07-28T23:13:22.334Z,38.76
2022-07-28T23:15:51.540Z,38.83
2022-07-28T23:18:19.399Z,38.87
2022-07-28T23:20:47.268Z,39.03
2022-07-28T23:23:18.262Z,39.03
2022-07-28T23:25:46.435Z,39.08
2022-07-28T23:28:14.608Z,39.15
2022-07-28T23:30:42.556Z,38.87
2022-07-28T23:33:54.138Z,39.06
2022-07-28T23:35:59.694Z,39.07
2022-07-28T23:38:27.578Z,39.30
2022-07-28T23:40:55.446Z,39.24
2022-07-28T23:43:23.298Z,39.13
2022-07-28T23:45:51.198Z,39.25
2022-07-28T23:48:20.470Z,39.20
2022-07-28T23:50:48.367Z,39.27
2022-07-28T23:53:16.360Z,39.14
2022-07-28T23:55:45.112Z,39.25
2022-07-28T23:58:13.058Z,39.35
